Piseco, NY (12139)

6:08 AM EDT on September 17, 2014 (GMT -0400)
King Of The Frosties | Change Station
CLOSE
Current Station
Personal Weather Station
Location: Speculator, NY
Elevation: 1752 ft
Nearby Weather Stations

Elev 1752 ft 43.50 °N, 74.36 °W | Updated 6 minutes ago

Mostly Cloudy
Mostly Cloudy
33.7 °F
Feels Like 34 °F
N
0.0
Wind Variable Wind from NE
Gusts 0.0 mph

Today
High -- | Low -- °F
--% Chance of Precip.
Yesterday
High -- | Low -- °F
Precip. -- in
6:39 AM 7:04 PM
Last Quarter, 37% visible
Pressure 30.06 in
Visibility 10.0 miles
Clouds Scattered Clouds 4200 ft
Mostly Cloudy 6000 ft
Windchill 34 °F
Dew Point 33 °F
Humidity 95%
Rainfall 0.00 in
Snow Depth Not available.
UV 0 out of 12
Pollen 1.50 out of 12
Air Quality Not available.
Flu Activity Not available.
METAR KRME 170953Z AUTO 00000KT 10SM SCT042 BKN060 08/07 A3006 RMK AO2 SLP179 T00780072

More Conditions Fewer Conditions

Pressure 30.06 in
Visibility 10.0 miles
Clouds Scattered Clouds 4200 ft
Mostly Cloudy 6000 ft
Windchill 34 °F
Dew Point 33 °F
Humidity 95%
Rainfall 0.00 in
Snow Depth Not available.
UV 0 out of 12
Pollen 1.50 out of 12
Air Quality Not available.
Flu Activity Not available.
METAR KRME 170953Z AUTO 00000KT 10SM SCT042 BKN060 08/07 A3006 RMK AO2 SLP179 T00780072

More Conditions Fewer Conditions

10-Day Weather Forecast

Almanac

Astronomy

Sep. 17, 2014 Rise Set
Actual Time 6:39 AM EDT 7:04 PM EDT
Civil Twilight 6:11 AM EDT 7:33 PM EDT
Nautical Twilight 5:37 AM EDT 8:06 PM EDT
Astronomical Twilight 5:02 AM EDT 8:41 PM EDT
Moon 12:30 AM EDT 3:19 PM EDT
Length of Visible Light 13h 22m
Length of Day
12h 24m
Tomorrow will be 2m 56s shorter.
Last Quarter, 37% of the Moon is Illuminated
Today
Last Quarter
Sep 24
New
Oct 1
First Quarter
Oct 8
Full
Oct 15
Last Quarter

Today's Extremes

State Highs State Lows

Community

WunderPhotos

Upload Photos

1,753,991 photos uploaded!

Nearby

Air Quality

  Air Quality AQ Index Pollutant
Wednesday Good
OZONE
Wednesday Good
PM2.5

Snow Depth

Station Depth Elevation
No new snow has been reported.

Earthquake Activity

City Distance Mag. Time & Date
No recent earthquake activity has been reported nearby.
Minimum magnitude displayed is 2.5.

Coastal Water Temperatures

Place Temperature
No Stations Reporting

Nearby Weather Stations